Terminal Aerodrome Forecast
Issued by NWS

Home | Current Version | Previous Version | Text Only | Print | Product List | Glossary On
Versions: 1 2 3 4 5 6 7 8 9 10 11 12 13 14 15 16 17 18
000
FTUS45 KRIW 171434 AAA
TAFCPR
TAF AMD
KCPR 171434Z 1715/1812 23012KT P6SM SKC
     FM171600 22018G26KT P6SM SKC
     FM180900 22022G30KT P6SM SCT200=

USA.gov is the U.S. government's official web portal to all federal, state and local government web resources and services.